createdAt,value
2023-04-01T00:00:01.035Z,99808.80
2023-04-01T00:00:23.349Z,99810.05
2023-04-01T00:00:45.216Z,99811.35
2023-04-01T00:01:07.515Z,99810.86
2023-04-01T00:01:30.730Z,99807.89
2023-04-01T00:01:53.028Z,99810.20
2023-04-01T00:02:15.833Z,99810.08
2023-04-01T00:02:37.973Z,99809.38
2023-04-01T00:03:01.374Z,99808.02
2023-04-01T00:03:23.706Z,99806.38
2023-04-01T00:03:46.077Z,99806.73
2023-04-01T00:04:08.157Z,99808.73
2023-04-01T00:04:30.175Z,99808.05
2023-04-01T00:04:52.320Z,99806.17
2023-04-01T00:05:14.098Z,99809.48
2023-04-01T00:05:35.980Z,99809.17
2023-04-01T00:05:57.876Z,99810.23
2023-04-01T00:06:19.927Z,99805.75
2023-04-01T00:06:42.058Z,99806.73
2023-04-01T00:07:03.764Z,99807.38
2023-04-01T00:07:26.134Z,99805.22
2023-04-01T00:07:53.749Z,99803.33
2023-04-01T00:08:18.611Z,99804.51
2023-04-01T00:08:41.824Z,99804.41
2023-04-01T00:09:03.704Z,99809.55
2023-04-01T00:09:26.726Z,99808.32
2023-04-01T00:09:52.590Z,99806.22
2023-04-01T00:10:14.899Z,99805.11
2023-04-01T00:10:37.083Z,99803.37
2023-04-01T00:10:58.966Z,99803.92
2023-04-01T00:11:21.469Z,99802.04
2023-04-01T00:11:44.991Z,99798.45
2023-04-01T00:12:06.877Z,99800.23
2023-04-01T00:12:28.871Z,99800.39
2023-04-01T00:12:52.186Z,99802.17
2023-04-01T00:13:14.182Z,99800.66
2023-04-01T00:13:36.375Z,99804.71
2023-04-01T00:13:58.154Z,99804.00
2023-04-01T00:14:20.387Z,99801.64
2023-04-01T00:14:42.233Z,99805.48
2023-04-01T00:15:08.621Z,99806.08
2023-04-01T00:15:34.018Z,99805.98
2023-04-01T00:15:57.583Z,99800.71
2023-04-01T00:16:21.894Z,99803.34
2023-04-01T00:16:45.483Z,99805.67
2023-04-01T00:17:07.337Z,99802.02
2023-04-01T00:17:29.156Z,99800.14
2023-04-01T00:17:51.024Z,99803.88
2023-04-01T00:18:13.024Z,99805.16
2023-04-01T00:18:34.848Z,99803.42
2023-04-01T00:18:57.000Z,99803.84
2023-04-01T00:19:18.883Z,99801.79
2023-04-01T00:19:40.780Z,99804.45
2023-04-01T00:20:03.279Z,99803.59
2023-04-01T00:20:25.158Z,99805.73
2023-04-01T00:20:47.127Z,99806.88
2023-04-01T00:21:09.035Z,99803.38
2023-04-01T00:21:30.828Z,99803.40
2023-04-01T00:21:52.709Z,99804.16
2023-04-01T00:22:15.202Z,99803.83
2023-04-01T00:22:37.811Z,99805.63
2023-04-01T00:23:00.125Z,99803.39
2023-04-01T00:23:21.895Z,99805.70
2023-04-01T00:23:44.082Z,99808.55
2023-04-01T00:24:06.275Z,99806.14
2023-04-01T00:24:28.265Z,99804.23
2023-04-01T00:24:50.460Z,99805.84
2023-04-01T00:25:12.348Z,99804.13
2023-04-01T00:25:34.503Z,99808.34
2023-04-01T00:25:56.531Z,99808.77
2023-04-01T00:26:20.869Z,99807.37
2023-04-01T00:26:42.899Z,99809.23
2023-04-01T00:27:08.529Z,99805.40
2023-04-01T00:27:32.179Z,99807.90
2023-04-01T00:27:54.861Z,99806.16
2023-04-01T00:28:17.475Z,99811.59
2023-04-01T00:28:41.005Z,99805.69
2023-04-01T00:29:03.193Z,99806.42
2023-04-01T00:29:29.566Z,99808.23
2023-04-01T00:29:51.254Z,99808.81
2023-04-01T00:30:13.241Z,99808.92
2023-04-01T00:30:36.250Z,99810.41
2023-04-01T00:30:58.957Z,99809.79
2023-04-01T00:31:21.956Z,99808.08
2023-04-01T00:31:43.919Z,99809.53
2023-04-01T00:32:05.959Z,99810.57
2023-04-01T00:32:27.877Z,99805.33
2023-04-01T00:32:53.242Z,99811.11
2023-04-01T00:33:15.498Z,99811.65
2023-04-01T00:33:37.933Z,99812.89
2023-04-01T00:33:59.632Z,99812.61
2023-04-01T00:34:21.670Z,99813.08
2023-04-01T00:34:44.782Z,99812.66
2023-04-01T00:35:07.180Z,99807.71
2023-04-01T00:35:30.553Z,99812.48
2023-04-01T00:35:52.834Z,99811.05
2023-04-01T00:36:16.851Z,99810.94
2023-04-01T00:36:39.785Z,99812.15
2023-04-01T00:37:02.042Z,99810.95
2023-04-01T00:37:25.048Z,99816.23
2023-04-01T00:37:47.695Z,99811.36
2023-04-01T00:38:11.688Z,99811.29
2023-04-01T00:38:33.364Z,99812.86
2023-04-01T00:38:55.796Z,99811.70
2023-04-01T00:39:21.330Z,99813.15
2023-04-01T00:39:45.367Z,99812.65
2023-04-01T00:40:07.763Z,99810.88
2023-04-01T00:40:29.892Z,99810.55
2023-04-01T00:40:57.367Z,99811.45
2023-04-01T00:41:19.878Z,99804.63
2023-04-01T00:41:43.493Z,99808.36
2023-04-01T00:42:05.383Z,99808.95
2023-04-01T00:42:27.472Z,99806.86
2023-04-01T00:42:49.257Z,99809.55
2023-04-01T00:43:12.575Z,99805.52
2023-04-01T00:43:34.432Z,99808.03
2023-04-01T00:44:12.552Z,99808.94
2023-04-01T00:44:37.258Z,99809.14
2023-04-01T00:44:59.347Z,99809.58
2023-04-01T00:45:27.377Z,99811.17
2023-04-01T00:45:49.770Z,99805.77
2023-04-01T00:46:11.969Z,99807.71
2023-04-01T00:46:33.808Z,99808.14
2023-04-01T00:46:55.995Z,99810.77
2023-04-01T00:47:17.931Z,99807.50
2023-04-01T00:47:39.839Z,99808.91
2023-04-01T00:48:03.078Z,99810.52
2023-04-01T00:48:29.420Z,99811.15
2023-04-01T00:48:51.825Z,99807.63
2023-04-01T00:49:14.013Z,99809.30
2023-04-01T00:49:42.982Z,99811.04
2023-04-01T00:50:07.512Z,99815.64
2023-04-01T00:50:29.188Z,99814.28
2023-04-01T00:50:58.846Z,99818.04
2023-04-01T00:51:22.476Z,99814.56
2023-04-01T00:51:46.709Z,99812.00
2023-04-01T00:52:09.029Z,99812.35
2023-04-01T00:52:32.464Z,99812.41
2023-04-01T00:52:54.150Z,99809.14
2023-04-01T00:53:16.713Z,99810.79
2023-04-01T00:53:40.440Z,99811.88
2023-04-01T00:54:04.014Z,99815.11
2023-04-01T00:54:26.050Z,99814.81
2023-04-01T00:54:48.150Z,99815.02
2023-04-01T00:55:10.236Z,99811.55
2023-04-01T00:55:33.550Z,99814.41
2023-04-01T00:56:01.476Z,99813.05
2023-04-01T00:56:27.252Z,99812.72
2023-04-01T00:56:51.805Z,99811.39
2023-04-01T00:57:15.554Z,99815.46
2023-04-01T00:57:38.653Z,99814.21
2023-04-01T00:58:00.628Z,99808.70
2023-04-01T00:58:23.662Z,99814.51
2023-04-01T00:58:47.449Z,99812.26
2023-04-01T00:59:13.047Z,99811.93
2023-04-01T00:59:36.357Z,99811.88
2023-04-01T00:59:59.671Z,99814.58
2023-04-01T01:00:21.974Z,99812.52
2023-04-01T01:00:44.832Z,99813.79
2023-04-01T01:01:08.839Z,99814.38
2023-04-01T01:01:31.789Z,99812.58
2023-04-01T01:01:54.918Z,99814.29
2023-04-01T01:02:18.929Z,99811.98
2023-04-01T01:02:42.632Z,99806.92
2023-04-01T01:03:05.212Z,99808.54
2023-04-01T01:03:27.840Z,99809.11
2023-04-01T01:03:50.217Z,99810.44
2023-04-01T01:04:25.892Z,99807.78
2023-04-01T01:04:47.575Z,99808.13
2023-04-01T01:05:14.981Z,99806.72
2023-04-01T01:05:52.394Z,99811.67
2023-04-01T01:06:39.404Z,99813.10
2023-04-01T01:07:07.282Z,99809.61
2023-04-01T01:07:32.652Z,99812.94
2023-04-01T01:08:02.125Z,99806.48
2023-04-01T01:08:38.108Z,99811.45
2023-04-01T01:09:07.900Z,99812.23
2023-04-01T01:09:35.582Z,99808.44
2023-04-01T01:10:23.379Z,99813.52
2023-04-01T01:10:47.783Z,99814.63
2023-04-01T01:11:10.372Z,99814.88
2023-04-01T01:11:52.487Z,99815.11
2023-04-01T01:12:31.094Z,99810.75
2023-04-01T01:13:11.595Z,99811.59
2023-04-01T01:13:44.719Z,99817.44
2023-04-01T01:14:09.971Z,99812.60
2023-04-01T01:14:37.231Z,99819.50
2023-04-01T01:15:07.766Z,99813.77
2023-04-01T01:15:34.716Z,99811.50
2023-04-01T01:15:56.654Z,99813.10
2023-04-01T01:16:39.259Z,99814.36
2023-04-01T01:17:12.749Z,99818.46
2023-04-01T01:17:37.360Z,99813.23
2023-04-01T01:18:00.720Z,99813.45
2023-04-01T01:18:45.813Z,99814.40
2023-04-01T01:19:29.286Z,99814.59
2023-04-01T01:19:54.236Z,99819.77
2023-04-01T01:20:44.967Z,99815.02
2023-04-01T01:21:18.102Z,99818.99
2023-04-01T01:21:45.852Z,99821.45
2023-04-01T01:22:14.151Z,99821.67
2023-04-01T01:22:56.388Z,99821.20
2023-04-01T01:23:37.547Z,99820.40
2023-04-01T01:24:18.009Z,99825.54
2023-04-01T01:24:39.994Z,99820.36
2023-04-01T01:25:19.061Z,99824.61
2023-04-01T01:25:43.506Z,99819.56
2023-04-01T01:26:26.665Z,99822.11
2023-04-01T01:27:08.295Z,99822.67
2023-04-01T01:27:29.971Z,99819.92
2023-04-01T01:27:59.119Z,99824.55
2023-04-01T01:28:43.514Z,99825.13
2023-04-01T01:29:20.791Z,99825.20
2023-04-01T01:30:04.922Z,99828.44
2023-04-01T01:30:34.789Z,99825.83
2023-04-01T01:31:06.039Z,99822.73
2023-04-01T01:31:31.241Z,99822.38
2023-04-01T01:31:59.478Z,99824.80
2023-04-01T01:32:26.511Z,99824.92
2023-04-01T01:32:48.289Z,99823.52
2023-04-01T01:33:30.901Z,99822.30
2023-04-01T01:34:03.728Z,99821.58
2023-04-01T01:34:44.233Z,99821.20
2023-04-01T01:35:18.190Z,99824.96
2023-04-01T01:35:50.012Z,99822.69
2023-04-01T01:36:13.443Z,99822.39
2023-04-01T01:36:35.757Z,99819.75
2023-04-01T01:37:01.901Z,99819.48
2023-04-01T01:37:24.497Z,99820.06
2023-04-01T01:37:46.284Z,99820.62
2023-04-01T01:38:09.700Z,99821.90
2023-04-01T01:38:31.893Z,99819.83
2023-04-01T01:38:56.438Z,99824.63
2023-04-01T01:39:19.266Z,99824.36
2023-04-01T01:39:42.869Z,99821.73
2023-04-01T01:40:06.340Z,99821.98
2023-04-01T01:40:29.882Z,99818.67
2023-04-01T01:40:54.261Z,99824.32
2023-04-01T01:41:16.757Z,99821.38
2023-04-01T01:41:39.744Z,99823.23
2023-04-01T01:42:02.681Z,99818.68
2023-04-01T01:42:25.114Z,99819.60
2023-04-01T01:42:49.012Z,99816.52
2023-04-01T01:43:12.128Z,99817.08
2023-04-01T01:43:40.154Z,99820.80
2023-04-01T01:44:02.752Z,99817.59
2023-04-01T01:44:25.234Z,99813.96
2023-04-01T01:44:47.468Z,99821.36
2023-04-01T01:45:09.841Z,99818.08
2023-04-01T01:45:33.120Z,99819.90
2023-04-01T01:45:56.186Z,99819.77
2023-04-01T01:46:19.441Z,99817.23
2023-04-01T01:46:41.275Z,99817.64
2023-04-01T01:47:03.075Z,99821.52
2023-04-01T01:47:24.855Z,99817.70
2023-04-01T01:47:49.837Z,99819.86
2023-04-01T01:48:12.420Z,99821.64
2023-04-01T01:48:35.743Z,99818.23
2023-04-01T01:48:58.122Z,99820.01
2023-04-01T01:49:20.457Z,99818.31
2023-04-01T01:49:42.171Z,99818.17
2023-04-01T01:50:05.320Z,99818.93
2023-04-01T01:50:27.516Z,99818.80
2023-04-01T01:50:49.396Z,99818.55
2023-04-01T01:51:11.357Z,99818.63
2023-04-01T01:51:33.269Z,99817.77
2023-04-01T01:51:56.894Z,99817.80
2023-04-01T01:52:18.985Z,99820.73
2023-04-01T01:52:40.975Z,99817.09
2023-04-01T01:53:06.763Z,99821.01
2023-04-01T01:53:28.437Z,99816.86
2023-04-01T01:53:51.783Z,99817.46
2023-04-01T01:54:16.408Z,99818.74
2023-04-01T01:54:47.696Z,99817.76
2023-04-01T01:55:26.884Z,99816.98
2023-04-01T01:55:48.959Z,99823.34
2023-04-01T01:56:14.462Z,99818.45
2023-04-01T01:56:37.709Z,99820.66
2023-04-01T01:57:06.914Z,99820.25
2023-04-01T01:57:36.289Z,99820.45
2023-04-01T01:58:01.300Z,99818.73
2023-04-01T01:58:25.106Z,99813.49
2023-04-01T01:58:48.381Z,99819.39
2023-04-01T01:59:12.484Z,99817.11
2023-04-01T01:59:35.618Z,99819.06
2023-04-01T02:00:13.946Z,99817.69
2023-04-01T02:00:36.962Z,99816.77
2023-04-01T02:01:02.833Z,99817.58
2023-04-01T02:01:25.922Z,99817.58
2023-04-01T02:01:50.036Z,99818.37
2023-04-01T02:02:12.587Z,99821.72
2023-04-01T02:02:35.020Z,99819.33
2023-04-01T02:02:56.907Z,99817.31
2023-04-01T02:03:19.882Z,99820.31
2023-04-01T02:03:41.572Z,99818.85
2023-04-01T02:04:03.487Z,99823.05
2023-04-01T02:04:25.910Z,99817.36
2023-04-01T02:04:52.097Z,99818.83
2023-04-01T02:05:16.581Z,99822.08
2023-04-01T02:05:38.780Z,99820.42
2023-04-01T02:06:06.083Z,99819.40
2023-04-01T02:06:30.128Z,99820.89
2023-04-01T02:07:02.637Z,99820.06
2023-04-01T02:07:26.160Z,99818.38
2023-04-01T02:07:51.931Z,99817.19
2023-04-01T02:08:14.955Z,99823.52
2023-04-01T02:08:38.472Z,99821.82
2023-04-01T02:09:04.252Z,99822.73
2023-04-01T02:09:26.593Z,99824.83
2023-04-01T02:09:48.427Z,99826.27
2023-04-01T02:10:10.515Z,99825.98
2023-04-01T02:10:34.785Z,99827.26
2023-04-01T02:11:03.909Z,99829.96
2023-04-01T02:11:44.507Z,99828.46
2023-04-01T02:12:07.313Z,99830.60
2023-04-01T02:12:32.164Z,99831.19
2023-04-01T02:12:54.257Z,99830.88
2023-04-01T02:13:22.793Z,99834.65
2023-04-01T02:13:45.092Z,99834.73
2023-04-01T02:14:23.132Z,99833.92
2023-04-01T02:14:46.879Z,99835.38
2023-04-01T02:15:10.283Z,99833.36
2023-04-01T02:15:33.741Z,99833.65
2023-04-01T02:15:56.789Z,99833.51
2023-04-01T02:16:23.437Z,99834.67
2023-04-01T02:16:54.395Z,99834.52
2023-04-01T02:17:17.205Z,99833.38
2023-04-01T02:17:44.422Z,99832.71
2023-04-01T02:18:09.703Z,99832.82
2023-04-01T02:18:37.900Z,99834.13
2023-04-01T02:19:00.806Z,99836.64
2023-04-01T02:19:24.957Z,99836.80
2023-04-01T02:19:56.783Z,99832.41
2023-04-01T02:20:21.195Z,99832.23
2023-04-01T02:20:43.024Z,99833.45
2023-04-01T02:21:05.427Z,99833.44
2023-04-01T02:21:28.496Z,99830.55
2023-04-01T02:21:52.223Z,99830.95
2023-04-01T02:22:14.979Z,99832.67
2023-04-01T02:22:42.032Z,99833.15
2023-04-01T02:23:04.222Z,99835.59
2023-04-01T02:23:26.337Z,99834.73
2023-04-01T02:23:48.040Z,99831.81
2023-04-01T02:24:12.644Z,99833.70
2023-04-01T02:24:35.651Z,99831.48
2023-04-01T02:25:06.030Z,99834.02
2023-04-01T02:25:34.112Z,99832.50
2023-04-01T02:25:56.449Z,99833.30
2023-04-01T02:26:18.643Z,99833.46
2023-04-01T02:26:40.835Z,99831.05
2023-04-01T02:27:03.652Z,99836.01
2023-04-01T02:27:26.350Z,99834.27
2023-04-01T02:27:48.095Z,99832.77
2023-04-01T02:28:10.698Z,99834.39
2023-04-01T02:28:32.453Z,99831.88
2023-04-01T02:28:55.130Z,99835.42
2023-04-01T02:29:17.626Z,99833.38
2023-04-01T02:29:39.317Z,99834.15
2023-04-01T02:30:03.237Z,99837.38
2023-04-01T02:30:29.740Z,99833.25
2023-04-01T02:30:52.178Z,99834.33
2023-04-01T02:31:16.536Z,99837.48
2023-04-01T02:31:40.193Z,99835.66
2023-04-01T02:32:02.097Z,99836.52
2023-04-01T02:32:25.008Z,99835.46
2023-04-01T02:32:46.777Z,99834.67
2023-04-01T02:33:09.791Z,99834.04
2023-04-01T02:33:31.976Z,99833.17
2023-04-01T02:33:53.968Z,99833.27
2023-04-01T02:34:15.617Z,99834.16
2023-04-01T02:34:38.022Z,99834.07
2023-04-01T02:35:03.721Z,99836.39
2023-04-01T02:35:26.021Z,99833.88
2023-04-01T02:35:47.721Z,99834.66
2023-04-01T02:36:12.982Z,99833.66
2023-04-01T02:36:35.576Z,99835.66
2023-04-01T02:37:03.084Z,99837.16
2023-04-01T02:37:24.695Z,99835.45
2023-04-01T02:37:49.099Z,99836.95
2023-04-01T02:38:16.250Z,99837.81
2023-04-01T02:38:40.440Z,99835.96
2023-04-01T02:39:04.702Z,99833.40
2023-04-01T02:39:26.768Z,99834.93
2023-04-01T02:39:48.658Z,99835.26
2023-04-01T02:40:13.393Z,99835.48
2023-04-01T02:41:01.989Z,99836.94
2023-04-01T02:41:23.600Z,99835.79
2023-04-01T02:41:45.663Z,99833.63
2023-04-01T02:42:07.647Z,99835.45
2023-04-01T02:42:29.278Z,99834.92
2023-04-01T02:42:51.217Z,99835.66
2023-04-01T02:43:13.104Z,99838.15
2023-04-01T02:43:39.600Z,99837.04
2023-04-01T02:44:04.559Z,99839.59
2023-04-01T02:44:28.889Z,99837.30
2023-04-01T02:44:51.595Z,99838.48
2023-04-01T02:45:13.590Z,99840.14
2023-04-01T02:45:35.572Z,99835.80
2023-04-01T02:45:57.971Z,99835.29
2023-04-01T02:46:20.336Z,99840.09
2023-04-01T02:46:42.680Z,99842.39
2023-04-01T02:47:04.613Z,99845.09
2023-04-01T02:47:26.597Z,99840.41
2023-04-01T02:47:48.347Z,99843.19
2023-04-01T02:48:10.540Z,99840.85
2023-04-01T02:48:32.425Z,99840.48
2023-04-01T02:48:54.240Z,99842.65
2023-04-01T02:49:18.031Z,99842.73
2023-04-01T02:49:42.160Z,99842.08
2023-04-01T02:50:07.165Z,99839.86
2023-04-01T02:50:28.935Z,99845.13
2023-04-01T02:50:50.887Z,99843.81
2023-04-01T02:51:13.079Z,99844.09
2023-04-01T02:51:36.016Z,99842.89
2023-04-01T02:51:59.418Z,99846.27
2023-04-01T02:52:21.197Z,99842.67
2023-04-01T02:52:43.295Z,99842.40
2023-04-01T02:53:06.637Z,99840.65
2023-04-01T02:53:29.213Z,99842.88
2023-04-01T02:53:50.891Z,99840.08
2023-04-01T02:54:12.676Z,99841.93
2023-04-01T02:54:34.469Z,99842.72
2023-04-01T02:54:56.347Z,99840.17
2023-04-01T02:55:22.029Z,99842.41
2023-04-01T02:55:46.770Z,99840.56
2023-04-01T02:56:13.668Z,99840.85
2023-04-01T02:56:39.032Z,99838.98
2023-04-01T02:57:00.976Z,99841.79
2023-04-01T02:57:22.911Z,99845.04
2023-04-01T02:57:44.753Z,99843.88
2023-04-01T02:58:06.589Z,99843.38
2023-04-01T02:58:29.181Z,99845.55
2023-04-01T02:58:51.206Z,99846.42
2023-04-01T02:59:12.960Z,99848.05
2023-04-01T02:59:35.068Z,99845.85
2023-04-01T02:59:56.671Z,99850.13
2023-04-01T03:00:18.518Z,99845.48
2023-04-01T03:00:40.368Z,99845.08
2023-04-01T03:01:02.365Z,99844.86
2023-04-01T03:01:25.394Z,99846.30
2023-04-01T03:01:47.496Z,99843.77
2023-04-01T03:02:09.806Z,99841.91
2023-04-01T03:02:31.951Z,99841.79
2023-04-01T03:02:53.962Z,99848.46
2023-04-01T03:03:16.006Z,99848.79
2023-04-01T03:03:38.452Z,99846.02
2023-04-01T03:04:00.971Z,99846.07
2023-04-01T03:04:23.256Z,99845.92
2023-04-01T03:04:46.269Z,99845.64
2023-04-01T03:05:08.470Z,99846.98
2023-04-01T03:05:31.079Z,99845.21
2023-04-01T03:05:56.671Z,99845.91
2023-04-01T03:06:19.237Z,99846.08
2023-04-01T03:06:41.876Z,99843.14
2023-04-01T03:07:03.778Z,99846.52
2023-04-01T03:07:26.371Z,99842.60
2023-04-01T03:07:48.016Z,99844.23
2023-04-01T03:08:10.655Z,99843.93
2023-04-01T03:08:32.705Z,99843.35
2023-04-01T03:08:54.389Z,99842.35
2023-04-01T03:09:16.582Z,99841.75
2023-04-01T03:09:38.255Z,99843.08
2023-04-01T03:10:00.258Z,99843.98
2023-04-01T03:10:21.931Z,99843.16
2023-04-01T03:10:43.617Z,99845.50
2023-04-01T03:11:06.427Z,99847.11
2023-04-01T03:11:31.685Z,99844.20
2023-04-01T03:11:55.414Z,99844.09
2023-04-01T03:12:17.196Z,99842.89
2023-04-01T03:12:42.464Z,99841.92
2023-04-01T03:13:05.163Z,99841.91
2023-04-01T03:13:27.505Z,99843.57
2023-04-01T03:13:50.389Z,99842.91
2023-04-01T03:14:12.154Z,99846.60
2023-04-01T03:14:35.549Z,99843.89
2023-04-01T03:14:57.566Z,99848.44
2023-04-01T03:15:33.976Z,99844.27
2023-04-01T03:15:56.592Z,99843.64
2023-04-01T03:16:18.919Z,99848.04
2023-04-01T03:16:40.842Z,99845.94
2023-04-01T03:17:02.749Z,99845.25
2023-04-01T03:17:24.871Z,99844.48
2023-04-01T03:17:47.378Z,99841.99
2023-04-01T03:18:09.237Z,99843.35
2023-04-01T03:18:35.306Z,99845.84
2023-04-01T03:19:02.647Z,99847.28
2023-04-01T03:19:27.056Z,99848.19
2023-04-01T03:19:49.765Z,99847.33
2023-04-01T03:20:11.669Z,99848.77
2023-04-01T03:20:35.987Z,99849.17
2023-04-01T03:20:57.676Z,99850.44
2023-04-01T03:21:20.845Z,99850.61
2023-04-01T03:21:42.598Z,99850.98
2023-04-01T03:22:04.321Z,99849.73
2023-04-01T03:22:26.342Z,99850.48
2023-04-01T03:22:47.970Z,99852.61
2023-04-01T03:23:09.708Z,99851.28
2023-04-01T03:23:31.387Z,99850.54
2023-04-01T03:23:53.485Z,99849.61
2023-04-01T03:24:15.270Z,99847.08
2023-04-01T03:24:38.482Z,99849.22
2023-04-01T03:25:03.436Z,99854.94
2023-04-01T03:25:25.526Z,99851.73
2023-04-01T03:25:47.926Z,99853.16
2023-04-01T03:26:10.829Z,99861.05
2023-04-01T03:26:34.151Z,99855.20
2023-04-01T03:26:56.661Z,99856.67
2023-04-01T03:27:18.579Z,99857.58
2023-04-01T03:27:40.574Z,99856.12
2023-04-01T03:28:02.660Z,99855.28
2023-04-01T03:28:24.813Z,99856.73
2023-04-01T03:28:46.497Z,99861.55
2023-04-01T03:29:08.229Z,99855.16
2023-04-01T03:29:30.105Z,99858.70
2023-04-01T03:29:51.950Z,99858.44
2023-04-01T03:30:16.455Z,99860.40
2023-04-01T03:30:45.476Z,99859.80
2023-04-01T03:31:09.326Z,99856.16
2023-04-01T03:31:35.891Z,99860.95
2023-04-01T03:31:59.283Z,99859.34
2023-04-01T03:32:21.499Z,99857.96
2023-04-01T03:32:43.138Z,99861.77
2023-04-01T03:33:05.708Z,99864.62
2023-04-01T03:33:28.158Z,99863.84
2023-04-01T03:33:49.840Z,99862.28
2023-04-01T03:34:12.090Z,99864.60
2023-04-01T03:34:33.874Z,99864.45
2023-04-01T03:34:55.706Z,99863.23
2023-04-01T03:35:17.593Z,99862.89
2023-04-01T03:35:40.705Z,99861.87
2023-04-01T03:36:03.810Z,99862.14
2023-04-01T03:36:26.500Z,99862.95
2023-04-01T03:36:49.024Z,99861.86
2023-04-01T03:37:16.450Z,99861.50
2023-04-01T03:37:43.740Z,99859.23
2023-04-01T03:38:05.531Z,99862.42
2023-04-01T03:38:27.521Z,99855.98
2023-04-01T03:38:49.391Z,99860.91
2023-04-01T03:39:13.744Z,99862.07
2023-04-01T03:39:36.868Z,99859.52
2023-04-01T03:39:58.544Z,99864.17
2023-04-01T03:40:20.857Z,99863.38
2023-04-01T03:40:43.372Z,99858.55
2023-04-01T03:41:05.630Z,99861.32
2023-04-01T03:41:28.174Z,99860.88
2023-04-01T03:41:50.119Z,99862.08
2023-04-01T03:42:12.314Z,99863.39
2023-04-01T03:42:34.252Z,99861.92
2023-04-01T03:42:58.071Z,99861.80
2023-04-01T03:43:23.053Z,99863.14
2023-04-01T03:43:45.096Z,99861.45
2023-04-01T03:44:07.176Z,99861.19
2023-04-01T03:44:33.351Z,99860.41
2023-04-01T03:44:55.338Z,99859.21
2023-04-01T03:45:17.944Z,99860.58
2023-04-01T03:45:45.075Z,99857.45
2023-04-01T03:46:08.074Z,99858.91
2023-04-01T03:46:30.282Z,99858.11
2023-04-01T03:46:52.653Z,99857.76
2023-04-01T03:47:14.273Z,99857.59
2023-04-01T03:47:36.325Z,99857.72
2023-04-01T03:47:58.711Z,99858.14
2023-04-01T03:48:20.830Z,99858.36
2023-04-01T03:48:43.012Z,99855.77
2023-04-01T03:49:12.157Z,99858.05
2023-04-01T03:49:39.254Z,99858.90
2023-04-01T03:50:02.796Z,99855.73
2023-04-01T03:50:25.073Z,99857.86
2023-04-01T03:50:46.891Z,99857.92
2023-04-01T03:51:09.061Z,99858.52
2023-04-01T03:51:32.695Z,99862.29
2023-04-01T03:51:55.853Z,99859.64
2023-04-01T03:52:17.919Z,99857.14
2023-04-01T03:52:40.807Z,99860.30
2023-04-01T03:53:02.677Z,99858.09
2023-04-01T03:53:25.282Z,99858.96
2023-04-01T03:53:46.969Z,99859.33
2023-04-01T03:54:09.568Z,99859.89
2023-04-01T03:54:32.577Z,99862.08
2023-04-01T03:54:55.501Z,99858.61
2023-04-01T03:55:20.136Z,99859.85
2023-04-01T03:55:47.240Z,99861.50
2023-04-01T03:56:10.146Z,99862.80
2023-04-01T03:56:33.929Z,99860.91
2023-04-01T03:56:58.413Z,99858.38
2023-04-01T03:57:20.183Z,99861.03
2023-04-01T03:57:43.738Z,99861.25
2023-04-01T03:58:12.162Z,99859.70
2023-04-01T03:58:35.481Z,99863.48
2023-04-01T03:58:57.982Z,99861.65
2023-04-01T03:59:20.078Z,99861.32
2023-04-01T03:59:42.628Z,99861.57
2023-04-01T04:00:04.858Z,99862.70
2023-04-01T04:00:39.231Z,99860.82
2023-04-01T04:01:17.818Z,99864.96
2023-04-01T04:01:41.344Z,99864.15
2023-04-01T04:02:04.405Z,99867.98
2023-04-01T04:02:27.002Z,99866.67
2023-04-01T04:02:49.122Z,99867.11
2023-04-01T04:03:15.329Z,99866.64
2023-04-01T04:03:37.900Z,99864.92
2023-04-01T04:04:06.866Z,99865.77
2023-04-01T04:04:28.692Z,99865.13
2023-04-01T04:04:50.728Z,99864.08
2023-04-01T04:05:13.891Z,99861.98
2023-04-01T04:05:36.054Z,99863.29
2023-04-01T04:05:58.373Z,99862.81
2023-04-01T04:06:22.890Z,99861.17
2023-04-01T04:06:44.662Z,99864.11
2023-04-01T04:07:06.445Z,99865.66
2023-04-01T04:07:40.505Z,99857.64
2023-04-01T04:08:03.464Z,99860.84
2023-04-01T04:08:25.407Z,99861.61
2023-04-01T04:08:47.146Z,99858.55
2023-04-01T04:09:09.042Z,99858.48
2023-04-01T04:09:31.101Z,99858.16
2023-04-01T04:09:53.215Z,99862.52
2023-04-01T04:10:15.350Z,99858.26
2023-04-01T04:10:37.082Z,99858.50
2023-04-01T04:11:01.881Z,99859.48
2023-04-01T04:11:29.059Z,99856.48
2023-04-01T04:11:53.143Z,99860.23
2023-04-01T04:12:15.110Z,99858.04
2023-04-01T04:12:38.176Z,99858.98
2023-04-01T04:13:00.525Z,99858.54
2023-04-01T04:13:24.040Z,99859.33
2023-04-01T04:13:52.623Z,99861.55
2023-04-01T04:14:14.347Z,99862.30
2023-04-01T04:14:37.272Z,99861.31
2023-04-01T04:15:00.182Z,99863.30
2023-04-01T04:15:22.198Z,99865.42
2023-04-01T04:15:44.207Z,99866.13
2023-04-01T04:16:06.585Z,99863.44
2023-04-01T04:16:29.355Z,99866.54
2023-04-01T04:16:54.322Z,99862.77
2023-04-01T04:17:16.718Z,99866.67
2023-04-01T04:17:38.966Z,99864.05
2023-04-01T04:18:03.114Z,99864.12
2023-04-01T04:18:30.258Z,99867.46
2023-04-01T04:18:52.695Z,99868.53
2023-04-01T04:19:15.460Z,99868.65
2023-04-01T04:19:38.066Z,99869.42
2023-04-01T04:20:00.189Z,99867.45
2023-04-01T04:20:22.243Z,99869.04
2023-04-01T04:20:46.211Z,99871.34
2023-04-01T04:21:07.861Z,99871.86
2023-04-01T04:21:30.051Z,99871.36
2023-04-01T04:21:52.383Z,99869.12
2023-04-01T04:22:14.237Z,99873.36
2023-04-01T04:22:36.122Z,99871.98
2023-04-01T04:22:58.837Z,99871.52
2023-04-01T04:23:20.663Z,99871.92
2023-04-01T04:23:42.707Z,99874.08
2023-04-01T04:24:07.864Z,99872.92
2023-04-01T04:24:48.465Z,99875.54
2023-04-01T04:25:10.577Z,99873.32
2023-04-01T04:25:32.875Z,99873.70
2023-04-01T04:25:59.143Z,99873.59
2023-04-01T04:26:22.516Z,99873.13
2023-04-01T04:26:49.762Z,99875.50
2023-04-01T04:27:11.650Z,99874.55
2023-04-01T04:27:39.614Z,99878.81
2023-04-01T04:28:03.299Z,99878.15
2023-04-01T04:28:25.700Z,99879.73
2023-04-01T04:28:48.713Z,99877.59
2023-04-01T04:29:10.697Z,99878.86
2023-04-01T04:29:33.606Z,99882.27
2023-04-01T04:30:01.290Z,99881.27
2023-04-01T04:30:23.414Z,99878.84
2023-04-01T04:30:45.507Z,99878.19
2023-04-01T04:31:08.153Z,99878.77
2023-04-01T04:31:33.095Z,99882.38
2023-04-01T04:31:55.365Z,99879.54
2023-04-01T04:32:17.487Z,99880.70
2023-04-01T04:32:41.208Z,99880.25
2023-04-01T04:33:03.634Z,99879.91
2023-04-01T04:33:25.591Z,99880.79
2023-04-01T04:33:47.555Z,99883.80
2023-04-01T04:34:11.094Z,99879.40
2023-04-01T04:34:33.121Z,99880.39
2023-04-01T04:34:55.157Z,99878.12
2023-04-01T04:35:18.427Z,99876.66
2023-04-01T04:35:42.211Z,99882.70
2023-04-01T04:36:06.222Z,99881.34
2023-04-01T04:36:28.841Z,99880.02
2023-04-01T04:36:54.312Z,99879.18
2023-04-01T04:37:17.322Z,99882.98
2023-04-01T04:37:40.636Z,99884.98
2023-04-01T04:38:03.036Z,99884.45
2023-04-01T04:38:25.638Z,99885.43
2023-04-01T04:38:47.875Z,99884.60
2023-04-01T04:39:09.922Z,99883.33
2023-04-01T04:39:35.637Z,99882.11
2023-04-01T04:39:58.022Z,99885.51
2023-04-01T04:40:19.777Z,99883.27
2023-04-01T04:40:41.969Z,99881.95
2023-04-01T04:41:04.072Z,99883.73
2023-04-01T04:41:27.481Z,99882.39
2023-04-01T04:41:49.368Z,99884.42
2023-04-01T04:42:11.826Z,99885.28
2023-04-01T04:42:33.859Z,99884.06
2023-04-01T04:42:59.741Z,99885.70
2023-04-01T04:43:21.514Z,99885.93
2023-04-01T04:43:48.360Z,99881.19
2023-04-01T04:44:10.306Z,99888.38